createdAt,value
2022-09-22T00:01:29.228Z,35.63
2022-09-22T00:03:34.157Z,32.80
2022-09-22T00:05:39.771Z,29.88
2022-09-22T00:07:41.946Z,27.50
2022-09-22T00:09:44.151Z,27.40
2022-09-22T00:11:49.679Z,34.95
2022-09-22T00:13:55.981Z,28.83
2022-09-22T00:15:58.568Z,34.53
2022-09-22T00:18:00.668Z,37.50
2022-09-22T00:20:07.217Z,36.15
2022-09-22T00:22:15.198Z,32.42
2022-09-22T00:24:19.422Z,27.73
2022-09-22T00:26:23.371Z,27.15
2022-09-22T00:28:30.783Z,25.40
2022-09-22T00:30:33.100Z,25.70
2022-09-22T00:32:38.961Z,25.88
2022-09-22T00:34:41.210Z,25.60
2022-09-22T00:36:43.828Z,31.50
2022-09-22T00:38:46.929Z,23.33
2022-09-22T00:40:49.515Z,22.08
2022-09-22T00:42:51.856Z,20.77
2022-09-22T00:44:54.146Z,17.35
2022-09-22T00:47:20.898Z,20.50
2022-09-22T00:49:33.201Z,21.02
2022-09-22T00:51:38.460Z,13.15
2022-09-22T00:53:41.549Z,11.77
2022-09-22T00:55:55.681Z,11.88
2022-09-22T00:57:58.060Z,10.40
2022-09-22T01:00:03.021Z,11.30
2022-09-22T01:02:06.040Z,9.93
2022-09-22T01:04:09.414Z,14.10
2022-09-22T01:06:18.066Z,9.70
2022-09-22T01:08:22.382Z,7.95
2022-09-22T01:10:26.837Z,6.70
2022-09-22T01:12:32.443Z,10.10
2022-09-22T01:14:51.494Z,8.80
2022-09-22T01:17:12.507Z,12.70
2022-09-22T01:19:35.607Z,11.80
2022-09-22T01:21:42.686Z,10.25
2022-09-22T01:24:15.331Z,9.48
2022-09-22T01:26:17.403Z,13.18
2022-09-22T01:28:44.353Z,12.60
2022-09-22T01:30:53.718Z,10.40
2022-09-22T01:33:04.770Z,14.57
2022-09-22T01:35:47.130Z,12.32
2022-09-22T01:38:01.282Z,12.85
2022-09-22T01:40:30.077Z,14.90
2022-09-22T01:42:44.608Z,13.30
2022-09-22T01:45:00.117Z,12.93
2022-09-22T01:47:10.119Z,11.95
2022-09-22T01:49:16.183Z,18.23
2022-09-22T01:51:30.489Z,16.95
2022-09-22T01:53:39.921Z,19.10
2022-09-22T01:55:48.169Z,22.65
2022-09-22T01:58:06.621Z,25.55
2022-09-22T02:00:10.289Z,22.52
2022-09-22T02:02:25.917Z,20.65
2022-09-22T02:04:51.221Z,18.15
2022-09-22T02:06:59.297Z,15.05
2022-09-22T02:09:07.938Z,12.68
2022-09-22T02:11:16.474Z,17.20
2022-09-22T02:13:21.622Z,19.75
2022-09-22T02:15:42.729Z,12.93
2022-09-22T02:17:45.251Z,14.70
2022-09-22T02:19:47.646Z,13.13
2022-09-22T02:21:52.142Z,17.30
2022-09-22T02:23:55.388Z,12.82
2022-09-22T02:25:58.695Z,16.13
2022-09-22T02:28:02.167Z,18.58
2022-09-22T02:30:10.367Z,17.33
2022-09-22T02:32:16.631Z,16.63
2022-09-22T02:34:21.375Z,16.45
2022-09-22T02:36:44.312Z,15.77
2022-09-22T02:39:18.100Z,15.40
2022-09-22T02:41:51.515Z,15.38
2022-09-22T02:44:07.439Z,12.15
2022-09-22T02:46:18.786Z,11.43
2022-09-22T02:48:30.402Z,9.93
2022-09-22T02:50:35.319Z,10.87
2022-09-22T02:52:40.788Z,11.27
2022-09-22T02:54:43.277Z,9.18
2022-09-22T02:56:46.072Z,9.13
2022-09-22T02:58:48.164Z,9.93
2022-09-22T03:00:52.444Z,8.75
2022-09-22T03:02:54.622Z,5.65
2022-09-22T03:04:58.136Z,6.18
2022-09-22T03:07:02.044Z,6.75
2022-09-22T03:09:04.825Z,8.50
2022-09-22T03:11:06.867Z,7.75
2022-09-22T03:13:16.312Z,8.50
2022-09-22T03:15:20.876Z,7.72
2022-09-22T03:17:26.290Z,5.32
2022-09-22T03:19:28.348Z,6.05
2022-09-22T03:21:30.852Z,6.93
2022-09-22T03:23:35.737Z,5.68
2022-09-22T03:25:40.476Z,16.00
2022-09-22T03:27:42.568Z,5.53
2022-09-22T03:29:44.634Z,5.73
2022-09-22T03:31:51.682Z,6.77
2022-09-22T03:33:54.087Z,6.65
2022-09-22T03:35:56.561Z,5.63
2022-09-22T03:38:00.546Z,6.65
2022-09-22T03:40:04.906Z,6.38
2022-09-22T03:42:07.935Z,4.87
2022-09-22T03:44:10.827Z,5.10
2022-09-22T03:46:14.521Z,8.77
2022-09-22T03:48:16.798Z,5.72
2022-09-22T03:50:18.917Z,9.43
2022-09-22T03:52:21.352Z,8.98
2022-09-22T03:54:23.687Z,12.63
2022-09-22T03:56:25.774Z,12.05
2022-09-22T03:58:27.763Z,11.35
2022-09-22T04:00:32.058Z,12.20
2022-09-22T04:02:34.810Z,9.93
2022-09-22T04:04:37.965Z,7.57
2022-09-22T04:06:40.234Z,7.30
2022-09-22T04:08:42.437Z,7.35
2022-09-22T04:10:45.813Z,7.35
2022-09-22T04:12:53.412Z,10.50
2022-09-22T04:14:55.999Z,8.83
2022-09-22T04:17:00.175Z,15.98
2022-09-22T04:19:03.044Z,15.50
2022-09-22T04:21:05.497Z,15.73
2022-09-22T04:23:07.772Z,16.48
2022-09-22T04:25:10.130Z,26.37
2022-09-22T04:27:20.893Z,32.63
2022-09-22T04:29:23.455Z,24.70
2022-09-22T04:31:25.615Z,26.17
2022-09-22T04:33:27.511Z,26.20
2022-09-22T04:36:06.923Z,23.10
2022-09-22T04:38:10.942Z,20.47
2022-09-22T04:40:13.062Z,19.43
2022-09-22T04:42:15.404Z,24.90
2022-09-22T04:44:17.614Z,26.57
2022-09-22T04:46:19.922Z,31.55
2022-09-22T04:48:22.328Z,87.30
2022-09-22T04:50:24.877Z,126.93
2022-09-22T04:52:27.201Z,94.18
2022-09-22T04:54:29.663Z,46.60
2022-09-22T04:56:32.262Z,33.28
2022-09-22T04:58:59.769Z,24.47
2022-09-22T05:01:04.154Z,27.95
2022-09-22T05:03:11.661Z,28.35
2022-09-22T05:05:14.369Z,27.02
2022-09-22T05:07:16.469Z,25.92
2022-09-22T05:09:20.439Z,32.80
2022-09-22T05:11:23.986Z,30.35
2022-09-22T05:13:26.311Z,30.83
2022-09-22T05:15:28.833Z,26.98
2022-09-22T05:17:31.332Z,19.87
2022-09-22T05:19:36.080Z,66.68
2022-09-22T05:21:38.466Z,149.80
2022-09-22T05:23:40.872Z,72.35
2022-09-22T05:25:44.213Z,48.00
2022-09-22T05:27:48.050Z,33.17
2022-09-22T05:29:50.185Z,21.13
2022-09-22T05:31:52.668Z,18.17
2022-09-22T05:33:54.892Z,17.07
2022-09-22T05:35:57.194Z,14.52
2022-09-22T05:37:59.401Z,11.23
2022-09-22T05:40:02.240Z,14.88
2022-09-22T05:42:11.092Z,13.07
2022-09-22T05:44:13.538Z,13.93
2022-09-22T05:46:16.174Z,13.10
2022-09-22T05:48:18.663Z,16.43
2022-09-22T05:50:22.319Z,11.82
2022-09-22T05:52:24.668Z,13.07
2022-09-22T05:54:26.773Z,12.25
2022-09-22T05:56:28.952Z,11.73
2022-09-22T05:58:31.660Z,11.60
2022-09-22T06:00:56.913Z,11.10
2022-09-22T06:02:59.181Z,12.10
2022-09-22T06:05:01.834Z,11.93
2022-09-22T06:07:06.595Z,9.48
2022-09-22T06:09:08.840Z,14.02
2022-09-22T06:11:11.552Z,10.43
2022-09-22T06:13:14.174Z,12.48
2022-09-22T06:15:16.220Z,13.05
2022-09-22T06:17:18.492Z,12.85
2022-09-22T06:19:21.613Z,12.13
2022-09-22T06:21:24.858Z,13.02
2022-09-22T06:23:27.447Z,14.00
2022-09-22T06:25:29.944Z,12.63
2022-09-22T06:27:32.568Z,15.73
2022-09-22T06:29:34.814Z,19.20
2022-09-22T06:31:40.409Z,19.15
2022-09-22T06:33:48.450Z,15.93
2022-09-22T06:35:50.711Z,13.05
2022-09-22T06:37:57.735Z,17.05
2022-09-22T06:40:00.266Z,15.45
2022-09-22T06:42:02.985Z,13.60
2022-09-22T06:44:05.684Z,16.27
2022-09-22T06:46:13.885Z,19.13
2022-09-22T06:48:16.541Z,28.75
2022-09-22T06:50:18.647Z,43.88
2022-09-22T06:52:21.184Z,44.47
2022-09-22T06:54:25.245Z,31.10
2022-09-22T06:56:28.320Z,29.17
2022-09-22T06:58:42.412Z,27.40
2022-09-22T07:00:53.906Z,24.02
2022-09-22T07:03:28.304Z,21.75
2022-09-22T07:05:30.689Z,22.65
2022-09-22T07:07:33.345Z,20.58
2022-09-22T07:09:35.226Z,16.45
2022-09-22T07:11:40.161Z,22.63
2022-09-22T07:13:44.361Z,18.67
2022-09-22T07:15:46.839Z,16.70
2022-09-22T07:17:53.420Z,16.50
2022-09-22T07:19:56.615Z,21.42
2022-09-22T07:21:59.465Z,59.47
2022-09-22T07:24:08.522Z,72.75
2022-09-22T07:26:16.178Z,43.35
2022-09-22T07:28:18.764Z,27.98
2022-09-22T07:30:22.742Z,14.60
2022-09-22T07:32:25.307Z,12.60
2022-09-22T07:34:27.543Z,9.10
2022-09-22T07:36:32.349Z,7.82
2022-09-22T07:38:36.555Z,7.85
2022-09-22T07:40:39.093Z,6.43
2022-09-22T07:42:41.447Z,12.10
2022-09-22T07:45:05.292Z,7.72
2022-09-22T07:47:07.540Z,4.25
2022-09-22T07:49:12.662Z,5.13
2022-09-22T07:51:24.508Z,3.30
2022-09-22T07:53:27.484Z,4.53
2022-09-22T07:55:29.925Z,4.78
2022-09-22T07:57:32.924Z,3.30
2022-09-22T07:59:36.513Z,5.40
2022-09-22T08:01:44.553Z,7.10
2022-09-22T08:03:51.120Z,9.43
2022-09-22T08:06:06.097Z,13.50
2022-09-22T08:08:09.230Z,12.50
2022-09-22T08:10:16.101Z,10.93
2022-09-22T08:12:18.590Z,9.60
2022-09-22T08:14:23.308Z,12.90
2022-09-22T08:16:30.942Z,8.88
2022-09-22T08:18:36.526Z,9.40
2022-09-22T08:20:45.003Z,11.15
2022-09-22T08:22:53.273Z,12.40
2022-09-22T08:24:55.688Z,7.50
2022-09-22T08:26:58.150Z,6.70
2022-09-22T08:29:00.594Z,34.63
2022-09-22T08:31:03.423Z,108.22
2022-09-22T08:33:05.671Z,99.72
2022-09-22T08:35:09.204Z,89.32
2022-09-22T08:37:13.266Z,77.63
2022-09-22T08:39:16.622Z,66.32
2022-09-22T08:41:21.775Z,29.20
2022-09-22T08:43:24.007Z,12.23
2022-09-22T08:45:35.480Z,8.80
2022-09-22T08:48:04.835Z,5.55
2022-09-22T08:50:39.805Z,6.80
2022-09-22T08:52:55.567Z,5.90
2022-09-22T08:54:59.858Z,59.90
2022-09-22T08:57:22.925Z,71.72
2022-09-22T08:59:33.506Z,57.35
2022-09-22T09:01:38.725Z,40.60
2022-09-22T09:04:30.213Z,32.88
2022-09-22T09:07:01.919Z,31.42
2022-09-22T09:09:17.549Z,21.48
2022-09-22T09:11:55.310Z,28.67
2022-09-22T09:14:18.858Z,22.70
2022-09-22T09:16:39.152Z,24.95
2022-09-22T09:18:49.687Z,25.58
2022-09-22T09:20:52.354Z,30.75
2022-09-22T09:22:58.946Z,39.15
2022-09-22T09:25:24.872Z,28.08
2022-09-22T09:27:38.721Z,24.83
2022-09-22T09:30:00.584Z,20.00
2022-09-22T09:32:14.716Z,16.90
2022-09-22T09:34:19.042Z,11.57
2022-09-22T09:36:23.514Z,13.82
2022-09-22T09:38:40.061Z,12.52
2022-09-22T09:40:43.469Z,7.40
2022-09-22T09:42:57.194Z,7.80
2022-09-22T09:45:03.253Z,3.72
2022-09-22T09:47:15.745Z,4.82
2022-09-22T09:49:21.295Z,8.90
2022-09-22T09:51:26.629Z,27.10
2022-09-22T09:53:44.899Z,31.52
2022-09-22T09:55:47.170Z,21.83
2022-09-22T09:58:07.998Z,17.52
2022-09-22T10:00:32.524Z,7.93
2022-09-22T10:02:47.312Z,5.60
2022-09-22T10:04:53.701Z,4.43
2022-09-22T10:07:11.659Z,2.97
2022-09-22T10:09:27.965Z,3.17
2022-09-22T10:11:32.458Z,4.47
2022-09-22T10:13:37.399Z,3.70
2022-09-22T10:15:42.148Z,4.75
2022-09-22T10:17:45.133Z,7.00
2022-09-22T10:19:47.355Z,5.88
2022-09-22T10:21:50.043Z,4.68
2022-09-22T10:24:00.996Z,6.07
2022-09-22T10:26:27.508Z,4.70
2022-09-22T10:28:31.220Z,5.15
2022-09-22T10:30:37.692Z,4.93
2022-09-22T10:32:41.745Z,3.08
2022-09-22T10:34:47.237Z,2.83
2022-09-22T10:36:50.423Z,3.65
2022-09-22T10:38:58.991Z,2.78
2022-09-22T10:41:18.284Z,3.75
2022-09-22T10:43:47.024Z,3.35
2022-09-22T10:46:16.684Z,3.42
2022-09-22T10:48:41.328Z,3.25
2022-09-22T10:51:10.122Z,3.85
2022-09-22T10:53:31.726Z,3.42
2022-09-22T10:55:40.940Z,4.15
2022-09-22T10:58:23.846Z,4.70
2022-09-22T11:00:28.332Z,3.60
2022-09-22T11:02:59.478Z,4.93
2022-09-22T11:05:46.369Z,8.13
2022-09-22T11:08:31.269Z,28.77
2022-09-22T11:10:54.743Z,24.80
2022-09-22T11:13:34.524Z,17.92
2022-09-22T11:15:42.977Z,20.35
2022-09-22T11:18:13.699Z,19.38
2022-09-22T11:20:36.303Z,26.17
2022-09-22T11:22:53.789Z,17.38
2022-09-22T11:24:59.007Z,10.98
2022-09-22T11:27:01.845Z,11.82
2022-09-22T11:29:37.775Z,8.73
2022-09-22T11:32:17.731Z,5.72
2022-09-22T11:34:44.218Z,6.10
2022-09-22T11:36:51.298Z,6.07
2022-09-22T11:39:21.178Z,5.55
2022-09-22T11:41:30.000Z,4.30
2022-09-22T11:44:00.079Z,4.10
2022-09-22T11:46:20.368Z,5.22
2022-09-22T11:49:07.553Z,6.18
2022-09-22T11:51:41.303Z,5.53
2022-09-22T11:54:04.700Z,9.80
2022-09-22T11:56:33.252Z,34.88
2022-09-22T11:58:41.326Z,68.70
2022-09-22T12:00:55.562Z,120.20
2022-09-22T12:03:03.692Z,118.22
2022-09-22T12:05:19.859Z,91.72
2022-09-22T12:07:34.050Z,83.25
2022-09-22T12:10:05.684Z,71.65
2022-09-22T12:12:15.042Z,53.40
2022-09-22T12:14:18.703Z,37.50
2022-09-22T12:16:39.576Z,30.02
2022-09-22T12:18:56.505Z,27.67
2022-09-22T12:21:04.786Z,19.10
2022-09-22T12:23:39.016Z,21.15
2022-09-22T12:25:48.677Z,16.55
2022-09-22T12:27:56.597Z,19.77
2022-09-22T12:30:13.426Z,19.30
2022-09-22T12:32:33.584Z,22.05
2022-09-22T12:34:40.196Z,21.88
2022-09-22T12:36:43.232Z,34.75
2022-09-22T12:38:48.726Z,39.40
2022-09-22T12:40:55.190Z,43.78
2022-09-22T12:42:59.590Z,40.03
2022-09-22T12:45:35.795Z,38.58
2022-09-22T12:47:42.897Z,28.23
2022-09-22T12:49:53.964Z,39.03
2022-09-22T12:51:56.959Z,51.67
2022-09-22T12:54:24.562Z,39.97
2022-09-22T12:56:47.454Z,41.50
2022-09-22T12:58:50.161Z,60.38
2022-09-22T13:00:57.106Z,37.28
2022-09-22T13:03:02.261Z,33.58
2022-09-22T13:05:06.158Z,29.25
2022-09-22T13:07:37.795Z,20.90
2022-09-22T13:09:40.144Z,14.32
2022-09-22T13:12:45.178Z,18.20
2022-09-22T13:15:20.930Z,113.88
2022-09-22T13:17:41.805Z,58.63
2022-09-22T13:19:56.133Z,42.58
2022-09-22T13:22:15.592Z,45.40
2022-09-22T13:24:23.663Z,21.45
2022-09-22T13:26:36.247Z,12.13
2022-09-22T13:28:38.966Z,28.73
2022-09-22T13:30:43.129Z,27.20
2022-09-22T13:32:50.648Z,18.40
2022-09-22T13:34:53.402Z,8.98
2022-09-22T13:37:06.185Z,6.55
2022-09-22T13:39:14.216Z,9.88
2022-09-22T13:41:41.301Z,36.40
2022-09-22T13:43:49.204Z,31.10
2022-09-22T13:45:54.326Z,24.05
2022-09-22T13:48:09.414Z,23.85
2022-09-22T13:50:22.434Z,17.73
2022-09-22T13:52:28.537Z,18.55
2022-09-22T13:54:35.380Z,12.55
2022-09-22T13:56:38.387Z,14.35
2022-09-22T13:58:44.394Z,10.30
2022-09-22T14:01:13.164Z,8.02
2022-09-22T14:03:20.451Z,6.45
2022-09-22T14:05:28.384Z,6.70
2022-09-22T14:07:38.357Z,11.75
2022-09-22T14:09:45.510Z,12.57
2022-09-22T14:11:48.210Z,10.07
2022-09-22T14:13:53.304Z,13.15
2022-09-22T14:15:55.592Z,16.63
2022-09-22T14:17:59.125Z,20.42
2022-09-22T14:20:05.694Z,22.27
2022-09-22T14:22:15.894Z,19.98
2022-09-22T14:24:18.898Z,16.65
2022-09-22T14:26:45.859Z,18.45
2022-09-22T14:28:51.845Z,12.10
2022-09-22T14:30:54.635Z,10.05
2022-09-22T14:33:03.749Z,5.72
2022-09-22T14:35:09.734Z,6.07
2022-09-22T14:37:23.142Z,6.18
2022-09-22T14:39:34.546Z,14.18
2022-09-22T14:41:38.281Z,15.57
2022-09-22T14:43:42.549Z,15.38
2022-09-22T14:46:00.759Z,17.90
2022-09-22T14:48:10.912Z,17.15
2022-09-22T14:50:20.662Z,19.20
2022-09-22T14:52:27.931Z,31.42
2022-09-22T14:54:32.856Z,30.15
2022-09-22T14:56:36.883Z,39.22
2022-09-22T14:58:44.585Z,47.13
2022-09-22T15:01:18.375Z,42.22
2022-09-22T15:03:32.830Z,36.58
2022-09-22T15:05:35.227Z,56.80
2022-09-22T15:07:40.571Z,48.88
2022-09-22T15:09:43.243Z,42.53
2022-09-22T15:11:57.473Z,38.42
2022-09-22T15:14:00.124Z,27.92
2022-09-22T15:16:02.549Z,27.85
2022-09-22T15:18:13.954Z,25.17
2022-09-22T15:20:16.739Z,27.42
2022-09-22T15:22:19.112Z,29.58
2022-09-22T15:24:27.394Z,29.15
2022-09-22T15:26:33.041Z,24.77
2022-09-22T15:28:38.833Z,24.67
2022-09-22T15:30:41.811Z,28.77
2022-09-22T15:32:46.897Z,34.38
2022-09-22T15:34:49.206Z,37.13
2022-09-22T15:36:56.193Z,44.28
2022-09-22T15:39:08.083Z,44.03
2022-09-22T15:41:12.461Z,44.00
2022-09-22T15:43:20.512Z,40.17
2022-09-22T15:45:23.185Z,24.05
2022-09-22T15:47:26.469Z,23.30
2022-09-22T15:49:29.686Z,21.48
2022-09-22T15:51:33.179Z,13.02
2022-09-22T15:53:39.029Z,8.40
2022-09-22T15:55:48.236Z,7.57
2022-09-22T15:57:55.186Z,7.70
2022-09-22T15:59:57.733Z,8.73
2022-09-22T16:02:00.645Z,9.73
2022-09-22T16:04:04.548Z,17.83
2022-09-22T16:06:11.152Z,15.77
2022-09-22T16:08:16.894Z,20.83
2022-09-22T16:10:25.723Z,26.77
2022-09-22T16:12:28.475Z,27.77
2022-09-22T16:14:30.636Z,42.97
2022-09-22T16:16:38.448Z,38.63
2022-09-22T16:18:42.129Z,32.47
2022-09-22T16:20:46.030Z,29.27
2022-09-22T16:22:48.267Z,21.10
2022-09-22T16:24:50.375Z,21.50
2022-09-22T16:26:52.574Z,14.55
2022-09-22T16:28:58.307Z,14.00
2022-09-22T16:31:04.691Z,11.30
2022-09-22T16:33:07.337Z,10.60
2022-09-22T16:35:10.045Z,9.15
2022-09-22T16:37:12.489Z,14.27
2022-09-22T16:39:15.807Z,15.82
2022-09-22T16:41:26.875Z,16.30
2022-09-22T16:43:29.252Z,18.38
2022-09-22T16:45:49.952Z,15.05
2022-09-22T16:47:52.472Z,15.23
2022-09-22T16:49:56.015Z,18.23
2022-09-22T16:51:58.530Z,27.95
2022-09-22T16:54:06.676Z,25.30
2022-09-22T16:56:08.888Z,29.42
2022-09-22T16:58:13.516Z,27.15
2022-09-22T17:00:16.273Z,25.15
2022-09-22T17:02:19.112Z,24.52
2022-09-22T17:04:21.388Z,25.98
2022-09-22T17:06:25.980Z,20.50
2022-09-22T17:08:28.872Z,18.85
2022-09-22T17:10:34.369Z,18.52
2022-09-22T17:12:37.389Z,16.10
2022-09-22T17:14:43.978Z,11.35
2022-09-22T17:16:50.990Z,13.50
2022-09-22T17:18:54.991Z,12.05
2022-09-22T17:20:58.293Z,14.43
2022-09-22T17:23:00.461Z,12.30
2022-09-22T17:25:02.587Z,14.60
2022-09-22T17:27:05.808Z,10.07
2022-09-22T17:29:08.608Z,8.80
2022-09-22T17:31:11.371Z,7.03
2022-09-22T17:33:13.533Z,9.07
2022-09-22T17:35:16.294Z,10.43
2022-09-22T17:37:19.930Z,14.82
2022-09-22T17:39:23.463Z,13.10
2022-09-22T17:41:28.716Z,15.10
2022-09-22T17:43:30.771Z,16.00
2022-09-22T17:45:33.367Z,14.57
2022-09-22T17:47:54.365Z,13.88
2022-09-22T17:50:14.890Z,13.23
2022-09-22T17:52:29.562Z,10.32
2022-09-22T17:55:01.116Z,11.02
2022-09-22T17:57:03.711Z,10.15
2022-09-22T17:59:06.253Z,9.40
2022-09-22T18:01:08.390Z,9.13
2022-09-22T18:03:10.614Z,9.15
2022-09-22T18:05:16.708Z,8.85
2022-09-22T18:07:22.384Z,8.07
2022-09-22T18:09:25.200Z,5.57
2022-09-22T18:11:28.340Z,8.40
2022-09-22T18:13:30.690Z,11.57
2022-09-22T18:15:33.099Z,15.63
2022-09-22T18:17:43.192Z,15.82
2022-09-22T18:19:47.271Z,14.23
2022-09-22T18:21:49.599Z,13.50
2022-09-22T18:23:52.019Z,11.75
2022-09-22T18:25:54.280Z,9.75
2022-09-22T18:27:57.609Z,6.90
2022-09-22T18:30:00.426Z,5.90
2022-09-22T18:32:03.909Z,7.85
2022-09-22T18:34:09.174Z,4.75
2022-09-22T18:36:12.173Z,7.43
2022-09-22T18:38:14.852Z,8.32
2022-09-22T18:40:17.564Z,12.02
2022-09-22T18:42:24.492Z,12.68
2022-09-22T18:44:29.278Z,15.30
2022-09-22T18:46:37.031Z,12.13
2022-09-22T18:48:41.751Z,12.77
2022-09-22T18:50:44.524Z,8.60
2022-09-22T18:52:47.873Z,6.50
2022-09-22T18:54:53.457Z,12.30
2022-09-22T18:56:57.144Z,6.25
2022-09-22T18:58:59.643Z,6.28
2022-09-22T19:01:02.266Z,4.72
2022-09-22T19:03:06.793Z,6.35
2022-09-22T19:05:09.709Z,7.20
2022-09-22T19:07:30.795Z,9.02
2022-09-22T19:09:35.267Z,11.05
2022-09-22T19:11:38.059Z,8.80
2022-09-22T19:13:40.325Z,11.15
2022-09-22T19:15:43.824Z,9.80
2022-09-22T19:17:49.999Z,9.95
2022-09-22T19:19:52.329Z,7.88
2022-09-22T19:21:54.685Z,9.45
2022-09-22T19:23:58.056Z,9.88
2022-09-22T19:26:00.478Z,10.65
2022-09-22T19:28:02.862Z,13.48
2022-09-22T19:30:05.894Z,13.25
2022-09-22T19:32:08.292Z,15.35
2022-09-22T19:34:11.842Z,15.75
2022-09-22T19:36:13.949Z,18.50
2022-09-22T19:38:18.115Z,19.42
2022-09-22T19:40:25.040Z,24.42
2022-09-22T19:42:28.600Z,33.90
2022-09-22T19:44:32.545Z,30.50
2022-09-22T19:46:35.797Z,30.42
2022-09-22T19:48:41.115Z,29.83
2022-09-22T19:50:43.490Z,28.23
2022-09-22T19:52:45.989Z,32.42
2022-09-22T19:54:48.924Z,31.05
2022-09-22T19:56:51.090Z,33.35
2022-09-22T19:58:53.293Z,29.77
2022-09-22T20:00:58.361Z,32.33
2022-09-22T20:03:01.139Z,34.40
2022-09-22T20:05:04.894Z,32.17
2022-09-22T20:07:11.142Z,36.22
2022-09-22T20:09:14.124Z,38.45
2022-09-22T20:11:26.606Z,35.97
2022-09-22T20:13:47.916Z,39.33
2022-09-22T20:15:50.231Z,39.47
2022-09-22T20:17:52.591Z,37.15
2022-09-22T20:19:55.546Z,34.00
2022-09-22T20:22:19.804Z,35.05
2022-09-22T20:24:23.319Z,39.05
2022-09-22T20:26:25.379Z,33.88
2022-09-22T20:28:27.734Z,29.83
2022-09-22T20:30:29.817Z,32.00
2022-09-22T20:32:34.884Z,33.15
2022-09-22T20:34:38.392Z,27.33
2022-09-22T20:36:42.425Z,24.45
2022-09-22T20:38:44.813Z,26.58
2022-09-22T20:40:48.435Z,20.17
2022-09-22T20:42:53.654Z,25.55
2022-09-22T20:44:55.739Z,24.38
2022-09-22T20:46:58.363Z,24.70
2022-09-22T20:49:01.432Z,21.02
2022-09-22T20:51:03.885Z,23.05
2022-09-22T20:53:06.281Z,24.75
2022-09-22T20:55:10.529Z,25.85
2022-09-22T20:57:15.617Z,23.75
2022-09-22T20:59:18.244Z,18.60
2022-09-22T21:01:20.846Z,20.15
2022-09-22T21:03:26.182Z,20.10
2022-09-22T21:05:29.111Z,18.00
2022-09-22T21:07:32.723Z,16.52
2022-09-22T21:09:53.166Z,16.23
2022-09-22T21:11:56.804Z,13.65
2022-09-22T21:14:03.223Z,14.45
2022-09-22T21:16:05.795Z,16.42
2022-09-22T21:18:08.246Z,22.40
2022-09-22T21:20:10.747Z,18.95
2022-09-22T21:22:13.641Z,18.67
2022-09-22T21:24:16.586Z,17.75
2022-09-22T21:26:21.107Z,15.23
2022-09-22T21:28:23.944Z,20.83
2022-09-22T21:30:28.931Z,19.02
2022-09-22T21:32:31.647Z,18.02
2022-09-22T21:34:36.716Z,18.33
2022-09-22T21:36:39.197Z,18.58
2022-09-22T21:38:49.393Z,17.60
2022-09-22T21:41:03.999Z,15.23
2022-09-22T21:43:06.267Z,18.08
2022-09-22T21:45:09.206Z,24.20
2022-09-22T21:47:11.748Z,24.20
2022-09-22T21:49:14.588Z,19.83
2022-09-22T21:51:22.027Z,21.55
2022-09-22T21:53:25.264Z,22.77
2022-09-22T21:55:27.633Z,18.10
2022-09-22T21:57:29.917Z,19.65
2022-09-22T21:59:32.194Z,19.08
2022-09-22T22:01:37.908Z,17.05
2022-09-22T22:03:43.797Z,16.05
2022-09-22T22:05:46.326Z,17.20
2022-09-22T22:07:48.863Z,15.45
2022-09-22T22:09:51.062Z,17.10
2022-09-22T22:11:59.483Z,20.55
2022-09-22T22:14:03.792Z,16.65
2022-09-22T22:16:08.465Z,19.48
2022-09-22T22:18:10.809Z,17.35
2022-09-22T22:20:12.988Z,14.18
2022-09-22T22:22:15.540Z,13.88
2022-09-22T22:24:35.921Z,13.38
2022-09-22T22:26:38.753Z,17.48
2022-09-22T22:28:42.448Z,15.18
2022-09-22T22:30:44.837Z,15.63
2022-09-22T22:32:46.975Z,18.80
2022-09-22T22:34:50.051Z,17.17
2022-09-22T22:36:52.965Z,16.80
2022-09-22T22:38:55.142Z,18.08
2022-09-22T22:41:02.311Z,18.15
2022-09-22T22:43:04.274Z,18.38
2022-09-22T22:45:06.751Z,14.65
2022-09-22T22:47:09.216Z,22.92
2022-09-22T22:49:11.790Z,26.77
2022-09-22T22:51:16.381Z,30.85
2022-09-22T22:53:21.422Z,17.15
2022-09-22T22:55:23.524Z,17.27
2022-09-22T22:57:26.818Z,13.73
2022-09-22T22:59:29.011Z,10.27
2022-09-22T23:01:32.023Z,13.57
2022-09-22T23:03:34.179Z,18.42
2022-09-22T23:05:40.818Z,14.25
2022-09-22T23:07:45.863Z,15.05
2022-09-22T23:09:47.977Z,11.68
2022-09-22T23:11:54.087Z,11.90
2022-09-22T23:14:03.222Z,15.75
2022-09-22T23:16:10.158Z,18.75
2022-09-22T23:18:12.371Z,16.45
2022-09-22T23:20:15.727Z,11.73
2022-09-22T23:22:17.758Z,9.80
2022-09-22T23:24:20.435Z,9.93
2022-09-22T23:26:24.178Z,12.02
2022-09-22T23:28:31.061Z,14.52
2022-09-22T23:30:33.842Z,19.40
2022-09-22T23:32:36.090Z,15.20
2022-09-22T23:34:38.298Z,15.10
2022-09-22T23:36:40.647Z,15.40
2022-09-22T23:38:43.158Z,20.20
2022-09-22T23:40:46.094Z,20.25
2022-09-22T23:42:50.804Z,20.50
2022-09-22T23:44:53.162Z,16.97
2022-09-22T23:46:55.260Z,15.97
2022-09-22T23:48:58.315Z,16.93
2022-09-22T23:51:01.865Z,14.47
2022-09-22T23:53:04.015Z,18.03
2022-09-22T23:55:06.277Z,21.50
2022-09-22T23:57:08.381Z,20.75
2022-09-22T23:59:10.663Z,20.07
